sensor_id;sensor_type;location;lat;lon;timestamp;P1;durP1;ratioP1;P2;durP2;ratioP2
6280;SDS011;3173;48.204;11.612;2022-11-20T00:02:11;3.17;;;2.57;;
6280;SDS011;3173;48.204;11.612;2022-11-20T00:04:37;3.90;;;2.07;;
6280;SDS011;3173;48.204;11.612;2022-11-20T00:07:04;3.80;;;2.60;;
6280;SDS011;3173;48.204;11.612;2022-11-20T00:09:30;5.20;;;2.10;;
6280;SDS011;3173;48.204;11.612;2022-11-20T00:11:56;3.87;;;1.87;;
6280;SDS011;3173;48.204;11.612;2022-11-20T00:14:22;4.90;;;2.23;;
6280;SDS011;3173;48.204;11.612;2022-11-20T00:16:48;3.03;;;2.13;;
6280;SDS011;3173;48.204;11.612;2022-11-20T00:19:14;5.50;;;2.60;;
6280;SDS011;3173;48.204;11.612;2022-11-20T00:21:40;3.47;;;2.37;;
6280;SDS011;3173;48.204;11.612;2022-11-20T00:24:08;2.70;;;1.97;;
6280;SDS011;3173;48.204;11.612;2022-11-20T00:26:35;4.00;;;2.43;;
6280;SDS011;3173;48.204;11.612;2022-11-20T00:29:01;3.80;;;2.10;;
6280;SDS011;3173;48.204;11.612;2022-11-20T00:31:27;4.40;;;2.50;;
6280;SDS011;3173;48.204;11.612;2022-11-20T00:33:54;3.03;;;2.47;;
6280;SDS011;3173;48.204;11.612;2022-11-20T00:36:24;3.30;;;2.20;;
6280;SDS011;3173;48.204;11.612;2022-11-20T00:38:53;3.70;;;2.53;;
6280;SDS011;3173;48.204;11.612;2022-11-20T00:41:20;3.10;;;2.30;;
6280;SDS011;3173;48.204;11.612;2022-11-20T00:43:46;4.83;;;2.40;;
6280;SDS011;3173;48.204;11.612;2022-11-20T00:46:13;6.40;;;2.87;;
6280;SDS011;3173;48.204;11.612;2022-11-20T00:48:40;3.33;;;2.47;;
6280;SDS011;3173;48.204;11.612;2022-11-20T00:51:06;3.40;;;2.40;;
6280;SDS011;3173;48.204;11.612;2022-11-20T00:53:32;3.30;;;2.10;;
6280;SDS011;3173;48.204;11.612;2022-11-20T00:55:59;4.13;;;2.83;;
6280;SDS011;3173;48.204;11.612;2022-11-20T00:58:28;2.33;;;2.10;;
6280;SDS011;3173;48.204;11.612;2022-11-20T01:00:59;3.47;;;2.60;;
6280;SDS011;3173;48.204;11.612;2022-11-20T01:03:25;3.67;;;2.73;;
6280;SDS011;3173;48.204;11.612;2022-11-20T01:05:50;3.37;;;2.20;;
6280;SDS011;3173;48.204;11.612;2022-11-20T01:08:16;4.03;;;2.43;;
6280;SDS011;3173;48.204;11.612;2022-11-20T01:10:42;3.73;;;2.87;;
6280;SDS011;3173;48.204;11.612;2022-11-20T01:13:08;4.43;;;2.63;;
6280;SDS011;3173;48.204;11.612;2022-11-20T01:15:53;3.50;;;2.70;;
6280;SDS011;3173;48.204;11.612;2022-11-20T01:18:19;4.03;;;2.87;;
6280;SDS011;3173;48.204;11.612;2022-11-20T01:20:45;5.40;;;2.77;;
6280;SDS011;3173;48.204;11.612;2022-11-20T01:23:11;3.10;;;2.53;;
6280;SDS011;3173;48.204;11.612;2022-11-20T01:25:37;4.77;;;3.07;;
6280;SDS011;3173;48.204;11.612;2022-11-20T01:28:03;5.57;;;3.20;;
6280;SDS011;3173;48.204;11.612;2022-11-20T01:30:29;11.73;;;3.03;;
6280;SDS011;3173;48.204;11.612;2022-11-20T01:32:55;4.23;;;2.87;;
6280;SDS011;3173;48.204;11.612;2022-11-20T01:35:21;3.70;;;2.77;;
6280;SDS011;3173;48.204;11.612;2022-11-20T01:37:47;4.53;;;2.70;;
6280;SDS011;3173;48.204;11.612;2022-11-20T01:40:13;4.27;;;2.60;;
6280;SDS011;3173;48.204;11.612;2022-11-20T01:42:43;4.90;;;3.00;;
6280;SDS011;3173;48.204;11.612;2022-11-20T01:48:13;4.33;;;2.70;;
6280;SDS011;3173;48.204;11.612;2022-11-20T01:50:39;5.23;;;2.77;;
6280;SDS011;3173;48.204;11.612;2022-11-20T01:53:06;3.70;;;2.40;;
6280;SDS011;3173;48.204;11.612;2022-11-20T01:55:34;2.70;;;2.20;;
6280;SDS011;3173;48.204;11.612;2022-11-20T01:58:02;4.33;;;2.70;;
6280;SDS011;3173;48.204;11.612;2022-11-20T02:00:29;3.37;;;2.20;;
6280;SDS011;3173;48.204;11.612;2022-11-20T02:02:59;2.90;;;2.40;;
6280;SDS011;3173;48.204;11.612;2022-11-20T02:05:32;3.93;;;2.27;;
6280;SDS011;3173;48.204;11.612;2022-11-20T02:07:59;4.97;;;2.60;;
6280;SDS011;3173;48.204;11.612;2022-11-20T02:10:26;7.03;;;2.80;;
6280;SDS011;3173;48.204;11.612;2022-11-20T02:12:53;7.47;;;2.80;;
6280;SDS011;3173;48.204;11.612;2022-11-20T02:15:38;3.03;;;2.60;;
6280;SDS011;3173;48.204;11.612;2022-11-20T02:18:04;3.53;;;2.40;;
6280;SDS011;3173;48.204;11.612;2022-11-20T02:20:31;4.73;;;3.07;;
6280;SDS011;3173;48.204;11.612;2022-11-20T02:22:59;3.80;;;2.73;;
6280;SDS011;3173;48.204;11.612;2022-11-20T02:25:28;3.87;;;2.50;;
6280;SDS011;3173;48.204;11.612;2022-11-20T02:27:55;4.33;;;3.00;;
6280;SDS011;3173;48.204;11.612;2022-11-20T02:30:21;3.20;;;2.53;;
6280;SDS011;3173;48.204;11.612;2022-11-20T02:32:47;7.30;;;2.73;;
6280;SDS011;3173;48.204;11.612;2022-11-20T02:37:49;4.23;;;2.97;;
6280;SDS011;3173;48.204;11.612;2022-11-20T02:40:16;3.00;;;2.60;;
6280;SDS011;3173;48.204;11.612;2022-11-20T02:42:42;4.23;;;3.20;;
6280;SDS011;3173;48.204;11.612;2022-11-20T02:45:08;5.10;;;3.27;;
6280;SDS011;3173;48.204;11.612;2022-11-20T02:47:34;5.33;;;3.20;;
6280;SDS011;3173;48.204;11.612;2022-11-20T02:50:00;3.20;;;2.70;;
6280;SDS011;3173;48.204;11.612;2022-11-20T02:52:26;3.77;;;2.90;;
6280;SDS011;3173;48.204;11.612;2022-11-20T02:54:52;3.93;;;2.70;;
6280;SDS011;3173;48.204;11.612;2022-11-20T02:57:18;4.50;;;2.83;;
6280;SDS011;3173;48.204;11.612;2022-11-20T02:59:44;3.87;;;2.90;;
6280;SDS011;3173;48.204;11.612;2022-11-20T03:02:10;4.73;;;2.90;;
6280;SDS011;3173;48.204;11.612;2022-11-20T03:04:36;6.00;;;3.33;;
6280;SDS011;3173;48.204;11.612;2022-11-20T03:07:02;3.67;;;3.17;;
6280;SDS011;3173;48.204;11.612;2022-11-20T03:09:28;5.60;;;3.00;;
6280;SDS011;3173;48.204;11.612;2022-11-20T03:11:54;5.23;;;3.60;;
6280;SDS011;3173;48.204;11.612;2022-11-20T03:14:20;2.93;;;2.63;;
6280;SDS011;3173;48.204;11.612;2022-11-20T03:16:46;4.23;;;2.70;;
6280;SDS011;3173;48.204;11.612;2022-11-20T03:19:12;5.00;;;2.67;;
6280;SDS011;3173;48.204;11.612;2022-11-20T03:21:38;4.80;;;3.07;;
6280;SDS011;3173;48.204;11.612;2022-11-20T03:24:04;4.30;;;2.83;;
6280;SDS011;3173;48.204;11.612;2022-11-20T03:26:30;3.30;;;2.70;;
6280;SDS011;3173;48.204;11.612;2022-11-20T03:28:57;4.67;;;2.43;;
6280;SDS011;3173;48.204;11.612;2022-11-20T03:31:34;3.27;;;2.70;;
6280;SDS011;3173;48.204;11.612;2022-11-20T03:34:00;4.80;;;2.90;;
6280;SDS011;3173;48.204;11.612;2022-11-20T03:36:27;3.27;;;2.57;;
6280;SDS011;3173;48.204;11.612;2022-11-20T03:38:54;3.53;;;2.50;;
6280;SDS011;3173;48.204;11.612;2022-11-20T03:41:21;4.33;;;3.30;;
6280;SDS011;3173;48.204;11.612;2022-11-20T03:43:48;2.80;;;2.20;;
6280;SDS011;3173;48.204;11.612;2022-11-20T03:46:14;5.00;;;3.10;;
6280;SDS011;3173;48.204;11.612;2022-11-20T03:48:40;5.20;;;2.60;;
6280;SDS011;3173;48.204;11.612;2022-11-20T03:51:07;8.43;;;2.93;;
6280;SDS011;3173;48.204;11.612;2022-11-20T03:53:33;4.03;;;2.77;;
6280;SDS011;3173;48.204;11.612;2022-11-20T03:55:59;4.13;;;2.63;;
6280;SDS011;3173;48.204;11.612;2022-11-20T03:58:25;3.43;;;2.60;;
6280;SDS011;3173;48.204;11.612;2022-11-20T04:00:51;8.53;;;2.83;;
6280;SDS011;3173;48.204;11.612;2022-11-20T04:03:17;4.73;;;2.90;;
6280;SDS011;3173;48.204;11.612;2022-11-20T04:05:43;4.00;;;2.47;;
6280;SDS011;3173;48.204;11.612;2022-11-20T04:08:09;4.20;;;2.33;;
6280;SDS011;3173;48.204;11.612;2022-11-20T04:10:35;6.60;;;3.10;;
6280;SDS011;3173;48.204;11.612;2022-11-20T04:13:01;7.17;;;2.93;;
6280;SDS011;3173;48.204;11.612;2022-11-20T04:15:27;2.57;;;2.23;;
6280;SDS011;3173;48.204;11.612;2022-11-20T04:17:53;5.37;;;2.33;;
6280;SDS011;3173;48.204;11.612;2022-11-20T04:20:19;3.10;;;2.30;;
6280;SDS011;3173;48.204;11.612;2022-11-20T04:22:45;3.13;;;1.97;;
6280;SDS011;3173;48.204;11.612;2022-11-20T04:25:11;3.93;;;2.13;;
6280;SDS011;3173;48.204;11.612;2022-11-20T04:27:37;3.13;;;2.07;;
6280;SDS011;3173;48.204;11.612;2022-11-20T04:30:03;4.23;;;3.07;;
6280;SDS011;3173;48.204;11.612;2022-11-20T04:32:29;3.37;;;2.03;;
6280;SDS011;3173;48.204;11.612;2022-11-20T04:34:55;5.13;;;2.57;;
6280;SDS011;3173;48.204;11.612;2022-11-20T04:37:21;3.03;;;2.30;;
6280;SDS011;3173;48.204;11.612;2022-11-20T04:39:47;5.23;;;2.00;;
6280;SDS011;3173;48.204;11.612;2022-11-20T04:42:13;2.57;;;2.20;;
6280;SDS011;3173;48.204;11.612;2022-11-20T04:44:55;7.13;;;2.40;;
6280;SDS011;3173;48.204;11.612;2022-11-20T04:47:21;2.87;;;2.17;;
6280;SDS011;3173;48.204;11.612;2022-11-20T04:49:47;4.37;;;2.23;;
6280;SDS011;3173;48.204;11.612;2022-11-20T04:52:13;2.77;;;2.57;;
6280;SDS011;3173;48.204;11.612;2022-11-20T04:54:39;3.57;;;1.90;;
6280;SDS011;3173;48.204;11.612;2022-11-20T04:57:05;3.20;;;2.63;;
6280;SDS011;3173;48.204;11.612;2022-11-20T04:59:31;3.47;;;2.30;;
6280;SDS011;3173;48.204;11.612;2022-11-20T05:01:57;4.97;;;2.53;;
6280;SDS011;3173;48.204;11.612;2022-11-20T05:04:23;7.17;;;2.80;;
6280;SDS011;3173;48.204;11.612;2022-11-20T05:06:49;3.70;;;2.60;;
6280;SDS011;3173;48.204;11.612;2022-11-20T05:09:15;3.80;;;2.53;;
6280;SDS011;3173;48.204;11.612;2022-11-20T05:11:41;6.50;;;2.57;;
6280;SDS011;3173;48.204;11.612;2022-11-20T05:14:07;5.23;;;2.53;;
6280;SDS011;3173;48.204;11.612;2022-11-20T05:16:34;3.03;;;2.70;;
6280;SDS011;3173;48.204;11.612;2022-11-20T05:19:01;5.17;;;2.27;;
6280;SDS011;3173;48.204;11.612;2022-11-20T05:21:26;4.00;;;2.53;;
6280;SDS011;3173;48.204;11.612;2022-11-20T05:23:52;5.17;;;2.57;;
6280;SDS011;3173;48.204;11.612;2022-11-20T05:26:21;2.77;;;2.30;;
6280;SDS011;3173;48.204;11.612;2022-11-20T05:28:47;4.20;;;2.57;;
6280;SDS011;3173;48.204;11.612;2022-11-20T05:31:17;4.50;;;3.10;;
6280;SDS011;3173;48.204;11.612;2022-11-20T05:33:44;4.00;;;2.30;;
6280;SDS011;3173;48.204;11.612;2022-11-20T05:36:11;4.60;;;2.73;;
6280;SDS011;3173;48.204;11.612;2022-11-20T05:38:37;4.97;;;2.53;;
6280;SDS011;3173;48.204;11.612;2022-11-20T05:41:04;4.07;;;2.20;;
6280;SDS011;3173;48.204;11.612;2022-11-20T05:43:37;5.43;;;2.63;;
6280;SDS011;3173;48.204;11.612;2022-11-20T05:46:04;3.40;;;2.47;;
6280;SDS011;3173;48.204;11.612;2022-11-20T05:48:30;3.30;;;2.50;;
6280;SDS011;3173;48.204;11.612;2022-11-20T05:50:57;4.17;;;2.20;;
6280;SDS011;3173;48.204;11.612;2022-11-20T05:53:23;4.40;;;2.13;;
6280;SDS011;3173;48.204;11.612;2022-11-20T05:55:59;4.33;;;2.30;;
6280;SDS011;3173;48.204;11.612;2022-11-20T05:58:26;4.53;;;3.00;;
6280;SDS011;3173;48.204;11.612;2022-11-20T06:00:52;4.00;;;2.73;;
6280;SDS011;3173;48.204;11.612;2022-11-20T06:03:18;4.00;;;2.57;;
6280;SDS011;3173;48.204;11.612;2022-11-20T06:05:44;3.47;;;2.33;;
6280;SDS011;3173;48.204;11.612;2022-11-20T06:08:10;2.93;;;2.27;;
6280;SDS011;3173;48.204;11.612;2022-11-20T06:10:36;3.90;;;2.20;;
6280;SDS011;3173;48.204;11.612;2022-11-20T06:13:02;3.00;;;2.07;;
6280;SDS011;3173;48.204;11.612;2022-11-20T06:15:28;2.50;;;2.30;;
6280;SDS011;3173;48.204;11.612;2022-11-20T06:17:54;4.10;;;2.13;;
6280;SDS011;3173;48.204;11.612;2022-11-20T06:20:20;2.73;;;2.33;;
6280;SDS011;3173;48.204;11.612;2022-11-20T06:22:46;3.90;;;2.33;;
6280;SDS011;3173;48.204;11.612;2022-11-20T06:25:12;4.30;;;2.63;;
6280;SDS011;3173;48.204;11.612;2022-11-20T06:27:38;5.10;;;2.60;;
6280;SDS011;3173;48.204;11.612;2022-11-20T06:30:05;3.23;;;2.43;;
6280;SDS011;3173;48.204;11.612;2022-11-20T06:32:31;3.03;;;2.23;;
6280;SDS011;3173;48.204;11.612;2022-11-20T06:34:58;3.87;;;2.10;;
6280;SDS011;3173;48.204;11.612;2022-11-20T06:37:24;3.40;;;2.23;;
6280;SDS011;3173;48.204;11.612;2022-11-20T06:39:50;4.40;;;2.67;;
6280;SDS011;3173;48.204;11.612;2022-11-20T06:42:15;3.27;;;2.53;;
6280;SDS011;3173;48.204;11.612;2022-11-20T06:44:41;4.37;;;1.97;;
6280;SDS011;3173;48.204;11.612;2022-11-20T06:47:07;2.87;;;2.47;;
6280;SDS011;3173;48.204;11.612;2022-11-20T06:49:33;4.97;;;2.33;;
6280;SDS011;3173;48.204;11.612;2022-11-20T06:51:59;3.77;;;2.27;;
6280;SDS011;3173;48.204;11.612;2022-11-20T06:54:25;2.40;;;1.80;;
6280;SDS011;3173;48.204;11.612;2022-11-20T06:56:51;2.73;;;2.17;;
6280;SDS011;3173;48.204;11.612;2022-11-20T06:59:17;2.73;;;1.93;;
6280;SDS011;3173;48.204;11.612;2022-11-20T07:01:43;2.80;;;1.70;;
6280;SDS011;3173;48.204;11.612;2022-11-20T07:04:09;2.60;;;2.03;;
6280;SDS011;3173;48.204;11.612;2022-11-20T07:06:35;3.33;;;2.00;;
6280;SDS011;3173;48.204;11.612;2022-11-20T07:09:01;3.50;;;2.10;;
6280;SDS011;3173;48.204;11.612;2022-11-20T07:11:27;4.10;;;1.60;;
6280;SDS011;3173;48.204;11.612;2022-11-20T07:13:53;2.87;;;1.77;;
6280;SDS011;3173;48.204;11.612;2022-11-20T07:16:19;3.87;;;1.90;;
6280;SDS011;3173;48.204;11.612;2022-11-20T07:18:45;1.90;;;1.40;;
6280;SDS011;3173;48.204;11.612;2022-11-20T07:21:11;2.70;;;1.90;;
6280;SDS011;3173;48.204;11.612;2022-11-20T07:23:37;3.07;;;1.77;;
6280;SDS011;3173;48.204;11.612;2022-11-20T07:26:06;4.00;;;1.50;;
6280;SDS011;3173;48.204;11.612;2022-11-20T07:28:33;2.40;;;1.80;;
6280;SDS011;3173;48.204;11.612;2022-11-20T07:30:59;4.30;;;2.17;;
6280;SDS011;3173;48.204;11.612;2022-11-20T07:33:25;3.10;;;1.80;;
6280;SDS011;3173;48.204;11.612;2022-11-20T07:35:51;3.80;;;2.00;;
6280;SDS011;3173;48.204;11.612;2022-11-20T07:38:17;2.70;;;1.87;;
6280;SDS011;3173;48.204;11.612;2022-11-20T07:40:43;3.23;;;1.53;;
6280;SDS011;3173;48.204;11.612;2022-11-20T07:43:08;2.43;;;1.80;;
6280;SDS011;3173;48.204;11.612;2022-11-20T07:45:34;3.57;;;2.07;;
6280;SDS011;3173;48.204;11.612;2022-11-20T07:48:01;3.13;;;1.90;;
6280;SDS011;3173;48.204;11.612;2022-11-20T07:50:27;3.80;;;2.23;;
6280;SDS011;3173;48.204;11.612;2022-11-20T07:52:59;3.23;;;2.10;;
6280;SDS011;3173;48.204;11.612;2022-11-20T07:55:25;2.53;;;1.93;;
6280;SDS011;3173;48.204;11.612;2022-11-20T07:57:55;2.23;;;2.00;;
6280;SDS011;3173;48.204;11.612;2022-11-20T08:00:21;2.23;;;1.73;;
6280;SDS011;3173;48.204;11.612;2022-11-20T08:02:48;4.00;;;2.33;;
6280;SDS011;3173;48.204;11.612;2022-11-20T08:05:13;4.67;;;2.97;;
6280;SDS011;3173;48.204;11.612;2022-11-20T08:07:40;9.03;;;4.30;;
6280;SDS011;3173;48.204;11.612;2022-11-20T08:10:07;5.33;;;2.23;;
6280;SDS011;3173;48.204;11.612;2022-11-20T08:12:34;2.17;;;1.93;;
6280;SDS011;3173;48.204;11.612;2022-11-20T08:15:18;3.60;;;1.90;;
6280;SDS011;3173;48.204;11.612;2022-11-20T08:17:44;6.07;;;2.87;;
6280;SDS011;3173;48.204;11.612;2022-11-20T08:20:10;3.23;;;2.30;;
6280;SDS011;3173;48.204;11.612;2022-11-20T08:22:36;5.50;;;2.07;;
6280;SDS011;3173;48.204;11.612;2022-11-20T08:25:02;5.23;;;2.23;;
6280;SDS011;3173;48.204;11.612;2022-11-20T08:27:28;4.10;;;2.37;;
6280;SDS011;3173;48.204;11.612;2022-11-20T08:29:54;5.30;;;2.90;;
6280;SDS011;3173;48.204;11.612;2022-11-20T08:32:20;5.97;;;2.70;;
6280;SDS011;3173;48.204;11.612;2022-11-20T08:34:46;4.87;;;2.60;;
6280;SDS011;3173;48.204;11.612;2022-11-20T08:37:12;4.17;;;2.20;;
6280;SDS011;3173;48.204;11.612;2022-11-20T08:39:38;3.53;;;2.20;;
6280;SDS011;3173;48.204;11.612;2022-11-20T08:42:07;3.17;;;1.80;;
6280;SDS011;3173;48.204;11.612;2022-11-20T08:44:33;3.50;;;2.50;;
6280;SDS011;3173;48.204;11.612;2022-11-20T08:46:59;3.33;;;1.90;;
6280;SDS011;3173;48.204;11.612;2022-11-20T08:49:25;2.97;;;1.90;;
6280;SDS011;3173;48.204;11.612;2022-11-20T08:51:51;3.70;;;1.90;;
6280;SDS011;3173;48.204;11.612;2022-11-20T08:54:20;2.10;;;1.80;;
6280;SDS011;3173;48.204;11.612;2022-11-20T08:56:47;2.30;;;1.70;;
6280;SDS011;3173;48.204;11.612;2022-11-20T08:59:13;3.80;;;1.67;;
6280;SDS011;3173;48.204;11.612;2022-11-20T09:01:39;2.60;;;2.00;;
6280;SDS011;3173;48.204;11.612;2022-11-20T09:04:05;2.57;;;1.90;;
6280;SDS011;3173;48.204;11.612;2022-11-20T09:06:30;2.90;;;1.90;;
6280;SDS011;3173;48.204;11.612;2022-11-20T09:08:56;3.30;;;2.00;;
6280;SDS011;3173;48.204;11.612;2022-11-20T09:11:22;2.93;;;2.17;;
6280;SDS011;3173;48.204;11.612;2022-11-20T09:13:48;5.63;;;2.33;;
6280;SDS011;3173;48.204;11.612;2022-11-20T09:16:14;2.40;;;1.80;;
6280;SDS011;3173;48.204;11.612;2022-11-20T09:18:41;7.60;;;2.37;;
6280;SDS011;3173;48.204;11.612;2022-11-20T09:21:09;4.17;;;2.67;;
6280;SDS011;3173;48.204;11.612;2022-11-20T09:23:36;3.13;;;2.03;;
6280;SDS011;3173;48.204;11.612;2022-11-20T09:26:09;2.73;;;2.00;;
6280;SDS011;3173;48.204;11.612;2022-11-20T09:28:35;4.80;;;2.47;;
6280;SDS011;3173;48.204;11.612;2022-11-20T09:31:04;2.57;;;1.90;;
6280;SDS011;3173;48.204;11.612;2022-11-20T09:33:30;2.90;;;2.13;;
6280;SDS011;3173;48.204;11.612;2022-11-20T09:35:56;3.33;;;2.40;;
6280;SDS011;3173;48.204;11.612;2022-11-20T09:38:22;4.40;;;1.90;;
6280;SDS011;3173;48.204;11.612;2022-11-20T09:41:10;2.47;;;1.70;;
6280;SDS011;3173;48.204;11.612;2022-11-20T09:46:13;1.90;;;1.63;;
6280;SDS011;3173;48.204;11.612;2022-11-20T09:56:24;5.23;;;3.03;;
6280;SDS011;3173;48.204;11.612;2022-11-20T09:58:51;2.30;;;1.80;;
6280;SDS011;3173;48.204;11.612;2022-11-20T10:01:18;2.37;;;1.90;;
6280;SDS011;3173;48.204;11.612;2022-11-20T10:06:12;4.70;;;2.37;;
6280;SDS011;3173;48.204;11.612;2022-11-20T10:08:48;6.60;;;1.87;;
6280;SDS011;3173;48.204;11.612;2022-11-20T10:24:38;3.20;;;1.90;;
6280;SDS011;3173;48.204;11.612;2022-11-20T10:27:18;2.73;;;2.10;;
6280;SDS011;3173;48.204;11.612;2022-11-20T10:29:47;3.20;;;2.07;;
6280;SDS011;3173;48.204;11.612;2022-11-20T10:32:19;3.80;;;2.17;;
6280;SDS011;3173;48.204;11.612;2022-11-20T10:34:57;1.73;;;1.37;;
6280;SDS011;3173;48.204;11.612;2022-11-20T10:37:26;4.40;;;1.40;;
6280;SDS011;3173;48.204;11.612;2022-11-20T10:40:00;3.67;;;1.57;;
6280;SDS011;3173;48.204;11.612;2022-11-20T10:42:29;2.70;;;1.57;;
6280;SDS011;3173;48.204;11.612;2022-11-20T10:44:59;2.63;;;1.23;;
6280;SDS011;3173;48.204;11.612;2022-11-20T10:47:29;2.30;;;1.20;;
6280;SDS011;3173;48.204;11.612;2022-11-20T10:49:56;2.53;;;1.43;;
6280;SDS011;3173;48.204;11.612;2022-11-20T10:52:27;4.93;;;1.63;;
6280;SDS011;3173;48.204;11.612;2022-11-20T11:00:03;1.77;;;1.10;;
6280;SDS011;3173;48.204;11.612;2022-11-20T11:02:34;1.50;;;1.10;;
6280;SDS011;3173;48.204;11.612;2022-11-20T11:05:04;1.70;;;1.00;;
6280;SDS011;3173;48.204;11.612;2022-11-20T11:07:35;2.07;;;1.23;;
6280;SDS011;3173;48.204;11.612;2022-11-20T11:10:05;2.53;;;1.27;;
6280;SDS011;3173;48.204;11.612;2022-11-20T11:12:37;1.50;;;1.10;;
6280;SDS011;3173;48.204;11.612;2022-11-20T11:15:24;2.50;;;1.70;;
6280;SDS011;3173;48.204;11.612;2022-11-20T11:17:50;2.13;;;1.30;;
6280;SDS011;3173;48.204;11.612;2022-11-20T11:20:17;1.73;;;1.20;;
6280;SDS011;3173;48.204;11.612;2022-11-20T11:22:48;2.10;;;1.30;;
6280;SDS011;3173;48.204;11.612;2022-11-20T11:25:22;3.33;;;1.40;;
6280;SDS011;3173;48.204;11.612;2022-11-20T11:27:49;1.30;;;1.00;;
6280;SDS011;3173;48.204;11.612;2022-11-20T11:30:16;2.13;;;1.10;;
6280;SDS011;3173;48.204;11.612;2022-11-20T11:32:42;2.70;;;1.27;;
6280;SDS011;3173;48.204;11.612;2022-11-20T11:35:23;1.27;;;1.07;;
6280;SDS011;3173;48.204;11.612;2022-11-20T11:37:51;1.90;;;1.17;;
6280;SDS011;3173;48.204;11.612;2022-11-20T11:40:19;2.30;;;1.27;;
6280;SDS011;3173;48.204;11.612;2022-11-20T11:42:58;3.57;;;1.20;;
6280;SDS011;3173;48.204;11.612;2022-11-20T11:45:24;2.20;;;1.23;;
6280;SDS011;3173;48.204;11.612;2022-11-20T11:47:51;2.27;;;1.30;;
6280;SDS011;3173;48.204;11.612;2022-11-20T11:50:20;3.00;;;1.33;;
6280;SDS011;3173;48.204;11.612;2022-11-20T11:55:33;1.97;;;1.40;;
6280;SDS011;3173;48.204;11.612;2022-11-20T12:00:47;3.27;;;1.30;;
6280;SDS011;3173;48.204;11.612;2022-11-20T12:05:49;2.17;;;1.30;;
6280;SDS011;3173;48.204;11.612;2022-11-20T12:08:23;1.50;;;1.00;;
6280;SDS011;3173;48.204;11.612;2022-11-20T12:10:58;1.50;;;1.10;;
6280;SDS011;3173;48.204;11.612;2022-11-20T12:16:04;2.60;;;1.47;;
6280;SDS011;3173;48.204;11.612;2022-11-20T12:18:30;1.90;;;1.30;;
6280;SDS011;3173;48.204;11.612;2022-11-20T12:26:14;1.73;;;1.17;;
6280;SDS011;3173;48.204;11.612;2022-11-20T12:29:02;1.07;;;0.90;;
6280;SDS011;3173;48.204;11.612;2022-11-20T12:31:37;2.00;;;1.20;;
6280;SDS011;3173;48.204;11.612;2022-11-20T12:34:12;2.70;;;1.27;;
6280;SDS011;3173;48.204;11.612;2022-11-20T12:56:11;1.50;;;1.20;;
6280;SDS011;3173;48.204;11.612;2022-11-20T13:03:37;3.10;;;1.17;;
6280;SDS011;3173;48.204;11.612;2022-11-20T13:06:06;1.60;;;1.33;;
6280;SDS011;3173;48.204;11.612;2022-11-20T13:08:36;2.97;;;1.43;;
6280;SDS011;3173;48.204;11.612;2022-11-20T13:18:41;3.53;;;1.30;;
6280;SDS011;3173;48.204;11.612;2022-11-20T13:29:35;2.13;;;1.20;;
6280;SDS011;3173;48.204;11.612;2022-11-20T13:32:15;2.53;;;1.73;;
6280;SDS011;3173;48.204;11.612;2022-11-20T13:34:51;4.57;;;1.50;;
6280;SDS011;3173;48.204;11.612;2022-11-20T13:37:32;3.10;;;1.57;;
6280;SDS011;3173;48.204;11.612;2022-11-20T13:42:35;1.30;;;1.17;;
6280;SDS011;3173;48.204;11.612;2022-11-20T13:45:08;3.50;;;1.50;;
6280;SDS011;3173;48.204;11.612;2022-11-20T13:47:34;2.40;;;1.40;;
6280;SDS011;3173;48.204;11.612;2022-11-20T13:50:02;1.73;;;1.50;;
6280;SDS011;3173;48.204;11.612;2022-11-20T13:58:04;4.10;;;1.60;;
6280;SDS011;3173;48.204;11.612;2022-11-20T14:00:32;2.97;;;1.77;;
6280;SDS011;3173;48.204;11.612;2022-11-20T14:05:49;1.73;;;1.40;;
6280;SDS011;3173;48.204;11.612;2022-11-20T14:08:27;3.63;;;1.47;;
6280;SDS011;3173;48.204;11.612;2022-11-20T14:13:56;2.60;;;1.70;;
6280;SDS011;3173;48.204;11.612;2022-11-20T14:16:23;4.63;;;1.43;;
6280;SDS011;3173;48.204;11.612;2022-11-20T14:18:49;4.30;;;2.20;;
6280;SDS011;3173;48.204;11.612;2022-11-20T14:21:22;3.73;;;1.50;;
6280;SDS011;3173;48.204;11.612;2022-11-20T14:23:48;3.53;;;1.50;;
6280;SDS011;3173;48.204;11.612;2022-11-20T14:26:15;4.20;;;1.60;;
6280;SDS011;3173;48.204;11.612;2022-11-20T14:28:47;1.73;;;1.60;;
6280;SDS011;3173;48.204;11.612;2022-11-20T14:31:16;2.03;;;1.63;;
6280;SDS011;3173;48.204;11.612;2022-11-20T14:33:44;5.43;;;1.60;;
6280;SDS011;3173;48.204;11.612;2022-11-20T14:36:16;4.23;;;1.67;;
6280;SDS011;3173;48.204;11.612;2022-11-20T14:38:42;2.33;;;1.70;;
6280;SDS011;3173;48.204;11.612;2022-11-20T14:41:09;2.73;;;1.67;;
6280;SDS011;3173;48.204;11.612;2022-11-20T14:43:41;2.80;;;1.60;;
6280;SDS011;3173;48.204;11.612;2022-11-20T14:46:10;4.20;;;1.47;;
6280;SDS011;3173;48.204;11.612;2022-11-20T14:48:38;2.60;;;1.70;;
6280;SDS011;3173;48.204;11.612;2022-11-20T14:51:04;1.70;;;1.47;;
6280;SDS011;3173;48.204;11.612;2022-11-20T14:53:31;4.23;;;1.70;;
6280;SDS011;3173;48.204;11.612;2022-11-20T14:55:58;2.07;;;1.47;;
6280;SDS011;3173;48.204;11.612;2022-11-20T14:58:28;2.10;;;1.67;;
6280;SDS011;3173;48.204;11.612;2022-11-20T15:01:02;2.40;;;1.70;;
6280;SDS011;3173;48.204;11.612;2022-11-20T15:03:39;1.80;;;1.50;;
6280;SDS011;3173;48.204;11.612;2022-11-20T15:06:06;1.53;;;1.20;;
6280;SDS011;3173;48.204;11.612;2022-11-20T15:08:32;1.73;;;1.27;;
6280;SDS011;3173;48.204;11.612;2022-11-20T15:10:58;1.53;;;0.90;;
6280;SDS011;3173;48.204;11.612;2022-11-20T15:15:52;2.30;;;0.80;;
6280;SDS011;3173;48.204;11.612;2022-11-20T15:18:20;2.50;;;1.03;;
6280;SDS011;3173;48.204;11.612;2022-11-20T15:20:47;1.33;;;1.23;;
6280;SDS011;3173;48.204;11.612;2022-11-20T15:23:16;1.83;;;1.07;;
6280;SDS011;3173;48.204;11.612;2022-11-20T15:25:43;2.07;;;1.07;;
6280;SDS011;3173;48.204;11.612;2022-11-20T15:28:13;1.97;;;1.00;;
6280;SDS011;3173;48.204;11.612;2022-11-20T15:30:40;1.73;;;1.10;;
6280;SDS011;3173;48.204;11.612;2022-11-20T15:33:08;1.93;;;1.10;;
6280;SDS011;3173;48.204;11.612;2022-11-20T15:35:34;2.03;;;1.00;;
6280;SDS011;3173;48.204;11.612;2022-11-20T15:38:00;2.60;;;1.03;;
6280;SDS011;3173;48.204;11.612;2022-11-20T15:40:26;1.63;;;1.10;;
6280;SDS011;3173;48.204;11.612;2022-11-20T15:42:52;2.50;;;1.20;;
6280;SDS011;3173;48.204;11.612;2022-11-20T15:45:49;1.93;;;1.10;;
6280;SDS011;3173;48.204;11.612;2022-11-20T15:48:24;1.50;;;1.20;;
6280;SDS011;3173;48.204;11.612;2022-11-20T15:53:24;2.23;;;1.17;;
6280;SDS011;3173;48.204;11.612;2022-11-20T15:55:50;1.70;;;1.37;;
6280;SDS011;3173;48.204;11.612;2022-11-20T15:58:15;4.70;;;1.03;;
6280;SDS011;3173;48.204;11.612;2022-11-20T16:00:42;1.70;;;1.20;;
6280;SDS011;3173;48.204;11.612;2022-11-20T16:03:10;3.00;;;1.73;;
6280;SDS011;3173;48.204;11.612;2022-11-20T16:05:36;1.90;;;1.30;;
6280;SDS011;3173;48.204;11.612;2022-11-20T16:08:02;2.27;;;1.40;;
6280;SDS011;3173;48.204;11.612;2022-11-20T16:10:28;1.53;;;1.13;;
6280;SDS011;3173;48.204;11.612;2022-11-20T16:12:54;2.10;;;1.30;;
6280;SDS011;3173;48.204;11.612;2022-11-20T16:15:38;2.23;;;1.13;;
6280;SDS011;3173;48.204;11.612;2022-11-20T16:18:11;4.83;;;2.30;;
6280;SDS011;3173;48.204;11.612;2022-11-20T16:20:37;4.73;;;1.80;;
6280;SDS011;3173;48.204;11.612;2022-11-20T16:23:04;2.20;;;1.30;;
6280;SDS011;3173;48.204;11.612;2022-11-20T16:25:30;1.90;;;1.47;;
6280;SDS011;3173;48.204;11.612;2022-11-20T16:27:56;3.23;;;1.53;;
6280;SDS011;3173;48.204;11.612;2022-11-20T16:30:22;5.20;;;2.27;;
6280;SDS011;3173;48.204;11.612;2022-11-20T16:32:48;5.47;;;2.20;;
6280;SDS011;3173;48.204;11.612;2022-11-20T16:35:14;4.70;;;2.00;;
6280;SDS011;3173;48.204;11.612;2022-11-20T16:37:40;3.63;;;1.93;;
6280;SDS011;3173;48.204;11.612;2022-11-20T16:40:07;3.00;;;1.53;;
6280;SDS011;3173;48.204;11.612;2022-11-20T16:42:33;3.43;;;1.43;;
6280;SDS011;3173;48.204;11.612;2022-11-20T16:44:59;2.77;;;1.30;;
6280;SDS011;3173;48.204;11.612;2022-11-20T16:47:25;1.87;;;1.40;;
6280;SDS011;3173;48.204;11.612;2022-11-20T16:49:51;2.33;;;1.40;;
6280;SDS011;3173;48.204;11.612;2022-11-20T16:52:17;2.80;;;1.70;;
6280;SDS011;3173;48.204;11.612;2022-11-20T16:54:43;3.20;;;1.60;;
6280;SDS011;3173;48.204;11.612;2022-11-20T16:57:09;4.00;;;1.60;;